createdAt,value
2023-03-03T00:00:03.582Z,37.85
2023-03-03T00:02:30.215Z,39.45
2023-03-03T00:04:56.934Z,44.75
2023-03-03T00:07:23.453Z,39.60
2023-03-03T00:09:50.193Z,40.35
2023-03-03T00:12:23.202Z,41.25
2023-03-03T00:14:49.875Z,44.05
2023-03-03T00:17:26.372Z,42.30
2023-03-03T00:19:53.665Z,32.92
2023-03-03T00:22:37.047Z,39.75
2023-03-03T00:25:34.396Z,30.90
2023-03-03T00:28:25.968Z,33.67
2023-03-03T00:30:54.432Z,32.22
2023-03-03T00:33:42.568Z,35.75
2023-03-03T00:36:14.906Z,37.92
2023-03-03T00:38:41.502Z,32.97
2023-03-03T00:41:20.080Z,40.00
2023-03-03T00:43:46.607Z,33.70
2023-03-03T00:46:18.447Z,33.22
2023-03-03T00:48:45.382Z,33.05
2023-03-03T00:51:26.958Z,38.92
2023-03-03T00:53:53.749Z,39.10
2023-03-03T00:56:20.244Z,33.75
2023-03-03T00:58:48.229Z,39.45
2023-03-03T01:01:16.044Z,36.38
2023-03-03T01:03:42.947Z,32.47
2023-03-03T01:06:10.122Z,36.03
2023-03-03T01:08:36.710Z,37.85
2023-03-03T01:11:11.919Z,34.63
2023-03-03T01:13:41.808Z,30.65
2023-03-03T01:16:08.830Z,35.70
2023-03-03T01:18:36.352Z,35.10
2023-03-03T01:21:03.061Z,36.10
2023-03-03T01:23:29.644Z,30.65
2023-03-03T01:25:56.195Z,35.42
2023-03-03T01:28:22.728Z,33.83
2023-03-03T01:30:49.258Z,35.95
2023-03-03T01:33:15.753Z,37.80
2023-03-03T01:35:48.422Z,41.15
2023-03-03T01:38:16.051Z,34.58
2023-03-03T01:40:42.657Z,36.45
2023-03-03T01:43:12.893Z,41.35
2023-03-03T01:46:08.089Z,38.35
2023-03-03T01:48:40.142Z,33.97
2023-03-03T01:51:18.058Z,32.60
2023-03-03T01:53:48.165Z,32.42
2023-03-03T01:56:14.790Z,32.97
2023-03-03T01:58:49.917Z,31.08
2023-03-03T02:01:21.832Z,35.10
2023-03-03T02:03:48.725Z,31.83
2023-03-03T02:06:18.564Z,32.28
2023-03-03T02:08:59.666Z,28.02
2023-03-03T02:11:28.652Z,30.55
2023-03-03T02:13:55.141Z,30.42
2023-03-03T02:16:21.718Z,26.83
2023-03-03T02:18:48.320Z,27.58
2023-03-03T02:21:17.895Z,30.90
2023-03-03T02:23:59.354Z,35.83
2023-03-03T02:26:29.243Z,29.63
2023-03-03T02:28:56.244Z,27.95
2023-03-03T02:31:26.734Z,27.77
2023-03-03T02:33:53.852Z,29.73
2023-03-03T02:36:25.898Z,27.48
2023-03-03T02:39:07.548Z,29.85
2023-03-03T02:41:51.442Z,27.80
2023-03-03T02:44:21.279Z,28.13
2023-03-03T02:46:50.110Z,28.67
2023-03-03T02:49:21.071Z,28.92
2023-03-03T02:51:47.646Z,26.75
2023-03-03T02:54:16.116Z,27.25
2023-03-03T02:56:42.995Z,32.83
2023-03-03T02:59:09.759Z,31.40
2023-03-03T03:01:37.268Z,31.08
2023-03-03T03:04:09.526Z,28.25
2023-03-03T03:06:36.346Z,31.75
2023-03-03T03:09:03.742Z,31.88
2023-03-03T03:11:30.267Z,29.90
2023-03-03T03:13:56.748Z,29.88
2023-03-03T03:16:23.317Z,27.58
2023-03-03T03:18:50.877Z,29.90
2023-03-03T03:21:18.040Z,28.75
2023-03-03T03:23:45.090Z,29.58
2023-03-03T03:26:11.983Z,28.48
2023-03-03T03:28:38.725Z,29.15
2023-03-03T03:31:06.650Z,29.50
2023-03-03T03:33:33.637Z,31.67
2023-03-03T03:36:00.645Z,28.42
2023-03-03T03:38:27.925Z,26.85
2023-03-03T03:40:54.868Z,27.90
2023-03-03T03:43:22.283Z,27.92
2023-03-03T03:45:49.330Z,26.73
2023-03-03T03:48:16.882Z,27.50
2023-03-03T03:50:43.428Z,25.45
2023-03-03T03:53:09.948Z,27.35
2023-03-03T03:55:36.470Z,26.55
2023-03-03T03:58:03.009Z,27.77
2023-03-03T04:00:30.600Z,26.33
2023-03-03T04:02:57.266Z,26.10
2023-03-03T04:05:24.019Z,28.85
2023-03-03T04:07:50.749Z,27.15
2023-03-03T04:10:18.049Z,27.98
2023-03-03T04:12:44.564Z,24.65
2023-03-03T04:15:13.164Z,25.25
2023-03-03T04:17:40.189Z,23.25
2023-03-03T04:20:08.246Z,23.08
2023-03-03T04:22:36.102Z,20.52
2023-03-03T04:25:07.372Z,21.70
2023-03-03T04:27:35.533Z,18.25
2023-03-03T04:30:03.589Z,19.75
2023-03-03T04:32:30.616Z,19.60
2023-03-03T04:35:07.306Z,19.67
2023-03-03T04:37:35.573Z,16.83
2023-03-03T04:40:02.512Z,19.08
2023-03-03T04:42:29.031Z,16.58
2023-03-03T04:44:55.570Z,17.35
2023-03-03T04:47:22.100Z,16.45
2023-03-03T04:49:48.659Z,18.17
2023-03-03T04:52:15.260Z,21.27
2023-03-03T04:54:41.785Z,19.52
2023-03-03T04:57:09.547Z,19.80
2023-03-03T04:59:36.345Z,21.02
2023-03-03T05:02:04.679Z,19.50
2023-03-03T05:04:32.217Z,19.92
2023-03-03T05:06:58.827Z,17.65
2023-03-03T05:09:25.425Z,16.42
2023-03-03T05:11:52.067Z,18.02
2023-03-03T05:14:18.758Z,16.27
2023-03-03T05:16:45.429Z,17.05
2023-03-03T05:19:12.122Z,16.63
2023-03-03T05:21:42.547Z,15.05
2023-03-03T05:24:11.251Z,15.77
2023-03-03T05:26:38.458Z,14.50
2023-03-03T05:29:05.357Z,13.75
2023-03-03T05:31:32.038Z,14.52
2023-03-03T05:33:58.770Z,12.65
2023-03-03T05:36:25.320Z,12.27
2023-03-03T05:38:51.917Z,12.32
2023-03-03T05:41:18.841Z,13.10
2023-03-03T05:43:45.596Z,12.27
2023-03-03T05:46:12.326Z,12.05
2023-03-03T05:48:38.957Z,12.25
2023-03-03T05:51:05.693Z,11.93
2023-03-03T05:53:32.174Z,11.90
2023-03-03T05:55:58.717Z,11.02
2023-03-03T05:58:25.365Z,11.43
2023-03-03T06:00:51.840Z,11.60
2023-03-03T06:03:18.410Z,11.40
2023-03-03T06:05:45.010Z,10.55
2023-03-03T06:08:11.488Z,11.05
2023-03-03T06:10:37.964Z,11.20
2023-03-03T06:13:04.599Z,11.90
2023-03-03T06:15:31.201Z,11.43
2023-03-03T06:17:57.700Z,13.48
2023-03-03T06:20:24.190Z,12.70
2023-03-03T06:22:50.710Z,12.63
2023-03-03T06:25:17.286Z,12.25
2023-03-03T06:27:43.763Z,12.45
2023-03-03T06:30:10.945Z,13.25
2023-03-03T06:32:37.518Z,13.38
2023-03-03T06:35:04.847Z,14.07
2023-03-03T06:37:31.385Z,14.13
2023-03-03T06:39:57.954Z,14.60
2023-03-03T06:42:24.930Z,15.48
2023-03-03T06:44:51.501Z,13.93
2023-03-03T06:47:18.106Z,14.20
2023-03-03T06:49:44.689Z,15.45
2023-03-03T06:52:14.585Z,13.10
2023-03-03T06:54:41.836Z,14.30
2023-03-03T06:57:23.687Z,14.68
2023-03-03T06:59:53.764Z,12.95
2023-03-03T07:02:22.337Z,13.32
2023-03-03T07:04:49.181Z,14.10
2023-03-03T07:07:24.919Z,15.13
2023-03-03T07:09:55.018Z,15.45
2023-03-03T07:12:27.589Z,13.82
2023-03-03T07:15:16.141Z,12.82
2023-03-03T07:17:48.512Z,13.43
2023-03-03T07:20:26.082Z,12.60
2023-03-03T07:22:52.584Z,13.45
2023-03-03T07:25:27.581Z,13.07
2023-03-03T07:28:00.225Z,12.68
2023-03-03T07:30:29.774Z,12.63
2023-03-03T07:32:58.844Z,15.20
2023-03-03T07:35:41.245Z,12.93
2023-03-03T07:38:24.473Z,12.75
2023-03-03T07:40:57.047Z,11.43
2023-03-03T07:43:38.746Z,11.77
2023-03-03T07:46:11.472Z,10.60
2023-03-03T07:48:41.985Z,10.05
2023-03-03T07:51:22.657Z,12.20
2023-03-03T07:53:49.602Z,11.95
2023-03-03T07:56:25.017Z,15.57
2023-03-03T07:58:51.971Z,14.77
2023-03-03T08:01:42.621Z,14.52
2023-03-03T08:04:39.689Z,13.93
2023-03-03T08:09:44.945Z,14.75
2023-03-03T08:12:28.248Z,12.50
2023-03-03T08:14:56.541Z,14.10
2023-03-03T08:17:35.761Z,14.77
2023-03-03T08:20:28.215Z,14.45
2023-03-03T08:22:55.016Z,13.07
2023-03-03T08:25:21.559Z,12.45
2023-03-03T08:27:48.048Z,14.13
2023-03-03T08:30:14.744Z,14.25
2023-03-03T08:32:41.303Z,13.70
2023-03-03T08:35:08.246Z,13.60
2023-03-03T08:37:34.905Z,14.10
2023-03-03T08:40:01.433Z,13.13
2023-03-03T08:42:30.163Z,15.32
2023-03-03T08:44:56.681Z,14.43
2023-03-03T08:47:23.269Z,13.80
2023-03-03T08:49:49.822Z,11.90
2023-03-03T08:52:16.366Z,12.40
2023-03-03T08:54:42.905Z,13.15
2023-03-03T08:57:09.395Z,13.38
2023-03-03T08:59:39.028Z,13.93
2023-03-03T09:02:06.940Z,14.43
2023-03-03T09:04:33.610Z,14.07
2023-03-03T09:07:00.287Z,14.25
2023-03-03T09:09:26.907Z,14.00
2023-03-03T09:11:58.133Z,15.15
2023-03-03T09:14:28.865Z,15.80
2023-03-03T09:16:57.283Z,16.90
2023-03-03T09:19:30.763Z,16.02
2023-03-03T09:22:02.190Z,17.40
2023-03-03T09:24:31.253Z,16.77
2023-03-03T09:27:00.596Z,17.58
2023-03-03T09:29:29.437Z,16.13
2023-03-03T09:31:59.818Z,17.20
2023-03-03T09:34:39.930Z,16.67
2023-03-03T09:37:27.487Z,16.73
2023-03-03T09:39:58.339Z,17.23
2023-03-03T09:42:52.065Z,16.20
2023-03-03T09:45:25.202Z,16.50
2023-03-03T09:48:22.056Z,14.73
2023-03-03T09:51:10.915Z,14.60
2023-03-03T09:54:01.028Z,15.90
2023-03-03T09:56:36.034Z,15.98
2023-03-03T09:59:13.012Z,13.70
2023-03-03T10:01:48.883Z,13.02
2023-03-03T10:04:42.861Z,13.73
2023-03-03T10:07:43.361Z,14.85
2023-03-03T10:10:38.933Z,15.00
2023-03-03T10:13:44.745Z,14.75
2023-03-03T10:16:32.524Z,14.48
2023-03-03T10:19:03.751Z,13.30
2023-03-03T10:21:42.729Z,13.32
2023-03-03T10:24:20.693Z,11.55
2023-03-03T10:27:24.475Z,13.02
2023-03-03T10:30:07.749Z,12.15
2023-03-03T10:32:59.394Z,12.48
2023-03-03T10:35:41.260Z,13.32
2023-03-03T10:38:49.762Z,12.55
2023-03-03T10:41:41.581Z,11.88
2023-03-03T10:44:25.825Z,11.55
2023-03-03T10:47:05.911Z,10.90
2023-03-03T10:49:48.053Z,12.27
2023-03-03T10:52:36.106Z,12.25
2023-03-03T10:55:05.599Z,11.02
2023-03-03T10:57:41.665Z,12.00
2023-03-03T11:00:26.682Z,10.70
2023-03-03T11:03:15.411Z,11.27
2023-03-03T11:05:49.530Z,10.65
2023-03-03T11:08:23.924Z,11.57
2023-03-03T11:11:16.703Z,11.70
2023-03-03T11:14:02.477Z,11.20
2023-03-03T11:16:39.627Z,9.80
2023-03-03T11:19:37.618Z,10.20
2023-03-03T11:22:26.072Z,9.57
2023-03-03T11:25:11.120Z,7.20
2023-03-03T11:28:19.846Z,8.70
2023-03-03T11:31:00.471Z,8.90
2023-03-03T11:33:40.428Z,8.88
2023-03-03T11:36:49.341Z,9.80
2023-03-03T11:39:20.536Z,9.10
2023-03-03T11:42:17.196Z,9.55
2023-03-03T11:45:28.979Z,8.77
2023-03-03T11:48:05.160Z,8.40
2023-03-03T11:53:25.626Z,8.70
2023-03-03T11:56:03.941Z,8.73
2023-03-03T11:58:38.567Z,7.82
2023-03-03T12:01:28.741Z,9.75
2023-03-03T12:04:04.788Z,8.90
2023-03-03T12:07:18.669Z,9.23
2023-03-03T12:10:17.588Z,8.88
2023-03-03T12:12:47.806Z,9.13
2023-03-03T12:15:55.452Z,9.80
2023-03-03T12:21:34.737Z,9.40
2023-03-03T12:24:15.418Z,7.85
2023-03-03T12:27:00.156Z,9.25
2023-03-03T12:29:31.756Z,8.13
2023-03-03T12:32:25.620Z,8.52
2023-03-03T12:35:18.060Z,8.05
2023-03-03T12:37:51.283Z,7.75
2023-03-03T12:40:26.886Z,8.10
2023-03-03T12:43:30.879Z,8.43
2023-03-03T12:46:11.139Z,7.47
2023-03-03T12:48:43.238Z,7.65
2023-03-03T12:51:41.141Z,6.90
2023-03-03T12:54:15.510Z,7.82
2023-03-03T12:56:47.109Z,6.93
2023-03-03T12:59:34.666Z,6.80
2023-03-03T13:02:19.902Z,7.63
2023-03-03T13:05:08.038Z,7.78
2023-03-03T13:08:06.433Z,8.13
2023-03-03T13:10:48.106Z,8.15
2023-03-03T13:13:24.435Z,8.07
2023-03-03T13:16:17.393Z,8.05
2023-03-03T13:18:51.074Z,7.57
2023-03-03T13:21:23.923Z,7.65
2023-03-03T13:24:18.253Z,8.05
2023-03-03T13:26:55.419Z,8.85
2023-03-03T13:29:30.451Z,7.65
2023-03-03T13:32:08.747Z,7.13
2023-03-03T13:34:58.864Z,8.55
2023-03-03T13:37:37.882Z,7.53
2023-03-03T13:40:13.445Z,8.38
2023-03-03T13:42:45.568Z,7.30
2023-03-03T13:45:26.975Z,8.63
2023-03-03T13:48:06.823Z,8.70
2023-03-03T13:50:44.207Z,9.10
2023-03-03T13:53:25.607Z,7.93
2023-03-03T13:56:10.188Z,8.25
2023-03-03T13:58:49.118Z,8.07
2023-03-03T14:01:31.566Z,9.43
2023-03-03T14:04:15.168Z,8.90
2023-03-03T14:06:53.368Z,9.45
2023-03-03T14:09:38.140Z,8.40
2023-03-03T14:12:32.988Z,8.35
2023-03-03T14:15:16.686Z,9.65
2023-03-03T14:17:59.149Z,8.50
2023-03-03T14:20:32.129Z,8.52
2023-03-03T14:23:02.332Z,8.73
2023-03-03T14:25:56.392Z,8.88
2023-03-03T14:28:26.154Z,8.10
2023-03-03T14:31:09.536Z,7.97
2023-03-03T14:33:36.092Z,7.68
2023-03-03T14:36:05.889Z,7.40
2023-03-03T14:38:32.325Z,8.07
2023-03-03T14:41:11.097Z,7.97
2023-03-03T14:43:42.547Z,8.20
2023-03-03T14:46:41.841Z,8.27
2023-03-03T14:49:31.966Z,8.07
2023-03-03T14:52:04.194Z,7.25
2023-03-03T14:54:39.508Z,7.55
2023-03-03T14:57:15.312Z,8.13
2023-03-03T14:59:55.660Z,7.72
2023-03-03T15:02:32.613Z,6.97
2023-03-03T15:05:27.606Z,7.78
2023-03-03T15:07:58.103Z,8.48
2023-03-03T15:10:32.312Z,7.55
2023-03-03T15:12:59.409Z,7.75
2023-03-03T15:15:27.003Z,7.80
2023-03-03T15:17:59.413Z,9.02
2023-03-03T15:20:46.137Z,8.80
2023-03-03T15:28:36.316Z,10.05
2023-03-03T15:31:18.360Z,10.77
2023-03-03T15:34:09.883Z,11.30
2023-03-03T15:36:46.538Z,12.20
2023-03-03T15:39:31.824Z,11.35
2023-03-03T15:42:08.146Z,12.07
2023-03-03T15:45:04.279Z,11.80
2023-03-03T15:47:49.754Z,11.88
2023-03-03T15:50:37.566Z,11.55
2023-03-03T15:53:15.534Z,11.52
2023-03-03T15:55:52.668Z,11.65
2023-03-03T15:58:48.398Z,11.25
2023-03-03T16:01:30.059Z,11.57
2023-03-03T16:04:04.681Z,13.07
2023-03-03T16:06:48.707Z,13.07
2023-03-03T16:09:42.855Z,12.82
2023-03-03T16:12:17.088Z,13.80
2023-03-03T16:14:54.315Z,14.10
2023-03-03T16:17:40.503Z,14.50
2023-03-03T16:20:25.223Z,13.73
2023-03-03T16:23:17.172Z,13.65
2023-03-03T16:25:52.735Z,14.30
2023-03-03T16:28:22.831Z,12.68
2023-03-03T16:30:57.607Z,13.43
2023-03-03T16:33:49.238Z,14.13
2023-03-03T16:36:29.586Z,13.75
2023-03-03T16:39:08.230Z,14.45
2023-03-03T16:42:08.310Z,15.07
2023-03-03T16:44:47.217Z,14.55
2023-03-03T16:47:33.678Z,13.30
2023-03-03T16:50:43.999Z,13.65
2023-03-03T16:53:19.469Z,13.85
2023-03-03T16:56:05.636Z,11.15
2023-03-03T16:58:56.686Z,11.20
2023-03-03T17:02:00.017Z,10.85
2023-03-03T17:04:58.965Z,10.60
2023-03-03T17:07:49.878Z,10.88
2023-03-03T17:10:23.237Z,10.13
2023-03-03T17:13:17.732Z,11.55
2023-03-03T17:16:06.031Z,12.60
2023-03-03T17:19:06.939Z,11.88
2023-03-03T17:22:14.650Z,11.20
2023-03-03T17:25:00.914Z,10.25
2023-03-03T17:27:32.716Z,9.98
2023-03-03T17:30:24.619Z,11.68
2023-03-03T17:33:03.744Z,10.93
2023-03-03T17:35:47.053Z,10.65
2023-03-03T17:38:42.872Z,9.70
2023-03-03T17:41:12.317Z,11.10
2023-03-03T17:44:10.684Z,10.45
2023-03-03T17:46:47.909Z,9.77
2023-03-03T17:49:33.633Z,10.15
2023-03-03T17:52:40.716Z,9.23
2023-03-03T17:55:16.381Z,10.10
2023-03-03T17:57:58.227Z,10.85
2023-03-03T18:00:54.277Z,11.23
2023-03-03T18:03:48.555Z,11.25
2023-03-03T18:06:54.313Z,10.43
2023-03-03T18:09:38.313Z,11.48
2023-03-03T18:12:25.536Z,10.85
2023-03-03T18:15:16.080Z,10.52
2023-03-03T18:17:51.794Z,11.30
2023-03-03T18:20:34.662Z,11.40
2023-03-03T18:23:28.797Z,11.70
2023-03-03T18:26:03.934Z,12.02
2023-03-03T18:29:09.433Z,11.55
2023-03-03T18:31:57.960Z,11.73
2023-03-03T18:34:37.645Z,12.32
2023-03-03T18:37:28.833Z,12.65
2023-03-03T18:40:04.575Z,12.30
2023-03-03T18:42:37.728Z,11.57
2023-03-03T18:45:30.591Z,11.70
2023-03-03T18:48:11.608Z,12.35
2023-03-03T18:50:44.140Z,11.40
2023-03-03T18:53:28.530Z,12.07
2023-03-03T18:56:00.181Z,12.82
2023-03-03T18:58:27.446Z,12.93
2023-03-03T19:00:56.048Z,13.27
2023-03-03T19:03:59.250Z,13.15
2023-03-03T19:06:36.261Z,12.68
2023-03-03T19:09:05.877Z,13.10
2023-03-03T19:11:49.123Z,12.55
2023-03-03T19:14:26.069Z,12.60
2023-03-03T19:16:54.101Z,13.43
2023-03-03T19:19:24.348Z,13.55
2023-03-03T19:22:12.543Z,13.40
2023-03-03T19:24:39.354Z,13.48
2023-03-03T19:27:21.689Z,13.15
2023-03-03T19:29:54.121Z,14.32
2023-03-03T19:32:42.624Z,13.13
2023-03-03T19:35:29.493Z,13.30
2023-03-03T19:38:08.155Z,12.70
2023-03-03T19:40:48.465Z,13.18
2023-03-03T19:43:46.477Z,13.55
2023-03-03T19:46:29.966Z,14.25
2023-03-03T19:49:05.218Z,13.75
2023-03-03T19:51:38.846Z,14.57
2023-03-03T19:54:05.445Z,14.38
2023-03-03T19:57:00.235Z,15.52
2023-03-03T19:59:44.692Z,14.77
2023-03-03T20:02:38.241Z,14.38
2023-03-03T20:05:34.802Z,14.60
2023-03-03T20:08:14.101Z,14.30
2023-03-03T20:10:49.726Z,14.23
2023-03-03T20:13:31.382Z,11.45
2023-03-03T20:16:23.554Z,12.32
2023-03-03T20:19:20.019Z,14.07
2023-03-03T20:22:04.582Z,13.35
2023-03-03T20:24:48.084Z,14.10
2023-03-03T20:27:19.240Z,14.05
2023-03-03T20:30:16.912Z,13.07
2023-03-03T20:33:21.171Z,15.15
2023-03-03T20:36:05.951Z,13.48
2023-03-03T20:39:18.178Z,14.00
2023-03-03T20:42:09.657Z,14.15
2023-03-03T20:45:24.552Z,14.10
2023-03-03T20:48:23.072Z,13.65
2023-03-03T20:51:16.078Z,14.43
2023-03-03T20:54:18.125Z,13.73
2023-03-03T20:57:02.030Z,13.43
2023-03-03T20:59:47.205Z,14.25
2023-03-03T21:02:25.526Z,15.70
2023-03-03T21:05:13.107Z,15.02
2023-03-03T21:07:56.822Z,15.85
2023-03-03T21:10:28.795Z,18.45
2023-03-03T21:12:57.489Z,17.10
2023-03-03T21:15:30.916Z,16.15
2023-03-03T21:17:58.734Z,16.27
2023-03-03T21:20:30.916Z,16.42
2023-03-03T21:22:59.062Z,16.73
2023-03-03T21:25:43.421Z,15.02
2023-03-03T21:28:39.112Z,14.52
2023-03-03T21:31:17.771Z,14.40
2023-03-03T21:33:47.468Z,16.17
2023-03-03T21:36:20.570Z,17.25
2023-03-03T21:38:48.028Z,16.52
2023-03-03T21:41:16.771Z,16.48
2023-03-03T21:43:49.848Z,17.00
2023-03-03T21:46:24.318Z,17.67
2023-03-03T21:48:51.932Z,16.65
2023-03-03T21:51:20.541Z,16.42
2023-03-03T21:53:47.849Z,18.75
2023-03-03T21:56:14.643Z,19.88
2023-03-03T21:58:42.014Z,18.40
2023-03-03T22:01:09.419Z,19.42
2023-03-03T22:03:37.713Z,19.95
2023-03-03T22:06:04.423Z,18.40
2023-03-03T22:08:30.987Z,20.23
2023-03-03T22:10:57.594Z,20.50
2023-03-03T22:13:25.983Z,20.33
2023-03-03T22:15:53.040Z,19.90
2023-03-03T22:18:20.111Z,21.88
2023-03-03T22:20:47.702Z,16.67
2023-03-03T22:23:15.447Z,19.98
2023-03-03T22:25:42.126Z,18.48
2023-03-03T22:28:09.037Z,20.40
2023-03-03T22:30:36.268Z,19.35
2023-03-03T22:33:02.818Z,18.40
2023-03-03T22:35:30.934Z,19.90
2023-03-03T22:37:57.643Z,21.85
2023-03-03T22:40:24.614Z,20.60
2023-03-03T22:42:51.150Z,21.45
2023-03-03T22:45:17.672Z,19.08
2023-03-03T22:47:44.200Z,21.58
2023-03-03T22:50:11.310Z,22.48
2023-03-03T22:52:37.877Z,20.75
2023-03-03T22:55:04.886Z,22.40
2023-03-03T22:57:31.650Z,21.63
2023-03-03T22:59:59.944Z,20.33
2023-03-03T23:02:26.512Z,19.88
2023-03-03T23:04:58.219Z,21.27
2023-03-03T23:07:26.469Z,19.08
2023-03-03T23:09:53.090Z,19.58
2023-03-03T23:12:20.156Z,19.98
2023-03-03T23:14:46.750Z,21.52
2023-03-03T23:17:13.359Z,21.02
2023-03-03T23:19:39.895Z,21.23
2023-03-03T23:22:06.470Z,20.50
2023-03-03T23:24:33.624Z,19.75
2023-03-03T23:27:00.868Z,20.08
2023-03-03T23:29:27.583Z,21.10
2023-03-03T23:31:54.233Z,19.70
2023-03-03T23:34:20.821Z,19.73
2023-03-03T23:36:48.693Z,14.82
2023-03-03T23:39:15.505Z,18.55
2023-03-03T23:41:42.167Z,19.83
2023-03-03T23:44:08.673Z,17.98
2023-03-03T23:46:35.248Z,20.20
2023-03-03T23:49:02.273Z,20.35
2023-03-03T23:51:29.080Z,17.73
2023-03-03T23:53:56.445Z,17.77
2023-03-03T23:56:23.325Z,18.90
2023-03-03T23:58:49.874Z,13.60
